createdAt,value
2022-08-07T00:00:46.321Z,0.00
2022-08-07T00:02:36.165Z,0.00
2022-08-07T00:02:46.350Z,0.00
2022-08-07T00:03:47.258Z,0.00
2022-08-07T00:04:46.553Z,0.00
2022-08-07T00:05:46.454Z,0.00
2022-08-07T00:06:51.723Z,0.00
2022-08-07T00:07:46.493Z,0.00
2022-08-07T00:08:46.552Z,0.00
2022-08-07T00:09:59.191Z,0.00
2022-08-07T00:10:47.973Z,0.00
2022-08-07T00:11:48.020Z,0.00
2022-08-07T00:13:00.589Z,0.00
2022-08-07T00:13:46.733Z,0.00
2022-08-07T00:14:46.784Z,0.00
2022-08-07T00:15:50.963Z,0.00
2022-08-07T00:16:46.854Z,0.00
2022-08-07T00:17:46.933Z,0.00
2022-08-07T00:18:46.974Z,0.00
2022-08-07T00:20:01.104Z,0.00
2022-08-07T00:20:47.666Z,0.00
2022-08-07T00:21:57.003Z,0.00
2022-08-07T00:22:51.458Z,0.00
2022-08-07T00:23:47.546Z,0.00
2022-08-07T00:24:47.106Z,0.00
2022-08-07T00:25:58.997Z,0.00
2022-08-07T00:26:58.954Z,0.00
2022-08-07T00:27:52.609Z,0.00
2022-08-07T00:28:56.508Z,0.00
2022-08-07T00:29:47.267Z,0.00
2022-08-07T00:30:47.318Z,0.00
2022-08-07T00:31:51.234Z,0.00
2022-08-07T00:32:47.358Z,0.00
2022-08-07T00:33:47.970Z,0.00
2022-08-07T00:34:47.483Z,0.00
2022-08-07T00:35:49.749Z,0.00
2022-08-07T00:36:47.569Z,0.00
2022-08-07T00:37:48.619Z,0.00
2022-08-07T00:38:47.631Z,0.00
2022-08-07T00:39:54.629Z,0.00
2022-08-07T00:40:47.709Z,0.00
2022-08-07T00:41:53.490Z,0.00
2022-08-07T00:42:50.206Z,0.00
2022-08-07T00:44:00.446Z,0.00
2022-08-07T00:44:47.887Z,0.00
2022-08-07T00:45:48.572Z,0.00
2022-08-07T00:46:47.952Z,0.00
2022-08-07T00:48:09.273Z,0.00
2022-08-07T00:48:49.933Z,0.00
2022-08-07T00:50:19.249Z,0.00
2022-08-07T00:50:51.341Z,0.00
2022-08-07T00:51:58.515Z,0.00
2022-08-07T00:52:48.183Z,0.00
2022-08-07T00:53:55.322Z,0.00
2022-08-07T00:54:53.911Z,0.00
2022-08-07T00:56:03.207Z,0.00
2022-08-07T00:56:49.780Z,0.00
2022-08-07T00:57:55.865Z,0.00
2022-08-07T00:58:49.850Z,0.00
2022-08-07T00:59:48.469Z,0.00
2022-08-07T01:00:51.378Z,0.00
2022-08-07T01:01:48.674Z,0.00
2022-08-07T01:02:48.548Z,0.00
2022-08-07T01:03:56.771Z,0.00
2022-08-07T01:04:48.652Z,0.00
2022-08-07T01:05:51.630Z,0.00
2022-08-07T01:06:48.630Z,0.00
2022-08-07T01:07:48.640Z,0.00
2022-08-07T01:08:53.149Z,0.00
2022-08-07T01:10:05.959Z,0.00
2022-08-07T01:10:54.363Z,0.00
2022-08-07T01:12:09.538Z,0.00
2022-08-07T01:12:53.964Z,0.00
2022-08-07T01:13:55.529Z,0.00
2022-08-07T01:14:48.811Z,0.00
2022-08-07T01:16:05.293Z,0.00
2022-08-07T01:16:48.932Z,0.00
2022-08-07T01:17:48.974Z,0.00
2022-08-07T01:18:49.021Z,0.00
2022-08-07T01:19:54.336Z,0.00
2022-08-07T01:20:57.454Z,0.00
2022-08-07T01:21:49.128Z,0.00
2022-08-07T01:23:12.290Z,0.00
2022-08-07T01:23:49.221Z,0.00
2022-08-07T01:24:49.263Z,0.00
2022-08-07T01:25:55.381Z,0.00
2022-08-07T01:26:51.922Z,0.00
2022-08-07T01:27:51.116Z,0.00
2022-08-07T01:28:49.351Z,0.00
2022-08-07T01:29:50.558Z,0.00
2022-08-07T01:30:51.360Z,0.00
2022-08-07T01:31:49.404Z,0.00
2022-08-07T01:32:49.433Z,0.00
2022-08-07T01:33:55.974Z,0.00
2022-08-07T01:34:49.513Z,0.00
2022-08-07T01:35:54.141Z,0.00
2022-08-07T01:36:52.588Z,0.00
2022-08-07T01:37:49.634Z,0.00
2022-08-07T01:38:49.674Z,0.00
2022-08-07T01:39:49.759Z,0.00
2022-08-07T01:40:49.720Z,0.00
2022-08-07T01:42:36.982Z,0.00
2022-08-07T01:42:57.409Z,0.00
2022-08-07T01:43:49.766Z,0.00
2022-08-07T01:44:49.745Z,0.00
2022-08-07T01:45:49.786Z,0.00
2022-08-07T01:46:49.805Z,0.00
2022-08-07T01:48:18.533Z,0.00
2022-08-07T01:48:49.797Z,0.00
2022-08-07T01:49:49.846Z,0.00
2022-08-07T01:50:49.867Z,0.00
2022-08-07T01:52:03.175Z,0.00
2022-08-07T01:52:54.339Z,0.00
2022-08-07T01:54:08.528Z,0.00
2022-08-07T01:54:49.989Z,0.00
2022-08-07T01:55:50.022Z,0.00
2022-08-07T01:56:50.072Z,0.00
2022-08-07T01:58:05.747Z,0.00
2022-08-07T01:58:50.091Z,0.00
2022-08-07T01:59:50.137Z,0.00
2022-08-07T02:00:50.173Z,0.00
2022-08-07T02:02:02.386Z,0.00
2022-08-07T02:03:18.742Z,0.00
2022-08-07T02:03:50.961Z,0.00
2022-08-07T02:04:56.239Z,0.00
2022-08-07T02:05:59.331Z,0.00
2022-08-07T02:06:50.381Z,0.00
2022-08-07T02:07:51.396Z,0.00
2022-08-07T02:08:54.387Z,0.00
2022-08-07T02:09:52.859Z,0.00
2022-08-07T02:10:54.980Z,0.00
2022-08-07T02:12:02.729Z,0.00
2022-08-07T02:12:50.594Z,0.00
2022-08-07T02:13:57.753Z,0.00
2022-08-07T02:14:50.673Z,0.00
2022-08-07T02:15:53.106Z,0.00
2022-08-07T02:16:50.793Z,0.00
2022-08-07T02:17:51.693Z,0.00
2022-08-07T02:18:51.163Z,0.00
2022-08-07T02:20:07.732Z,0.00
2022-08-07T02:20:55.834Z,0.00
2022-08-07T02:21:56.435Z,0.00
2022-08-07T02:22:54.842Z,0.00
2022-08-07T02:23:51.055Z,0.00
2022-08-07T02:24:51.121Z,0.00
2022-08-07T02:26:31.542Z,0.00
2022-08-07T02:26:51.187Z,0.00
2022-08-07T02:27:52.916Z,0.00
2022-08-07T02:28:51.239Z,0.00
2022-08-07T02:29:54.545Z,0.00
2022-08-07T02:30:51.317Z,0.00
2022-08-07T02:31:51.361Z,0.00
2022-08-07T02:33:00.528Z,0.00
2022-08-07T02:34:01.648Z,0.00
2022-08-07T02:34:51.538Z,0.00
2022-08-07T02:36:29.162Z,0.00
2022-08-07T02:36:51.509Z,0.00
2022-08-07T02:37:51.561Z,0.00
2022-08-07T02:38:56.817Z,0.00
2022-08-07T02:40:02.150Z,0.00
2022-08-07T02:40:55.585Z,0.00
2022-08-07T02:41:54.418Z,0.00
2022-08-07T02:42:51.741Z,0.00
2022-08-07T02:43:51.760Z,0.00
2022-08-07T02:44:51.922Z,0.00
2022-08-07T02:45:58.612Z,0.00
2022-08-07T02:46:52.872Z,0.00
2022-08-07T02:47:51.831Z,0.00
2022-08-07T02:48:54.917Z,0.00
2022-08-07T02:49:58.312Z,0.00
2022-08-07T02:50:51.902Z,0.00
2022-08-07T02:51:52.424Z,0.00
2022-08-07T02:52:52.001Z,0.00
2022-08-07T02:53:52.023Z,0.00
2022-08-07T02:54:52.198Z,0.00
2022-08-07T02:56:03.291Z,0.00
2022-08-07T02:56:52.113Z,0.00
2022-08-07T02:57:52.173Z,0.00
2022-08-07T02:58:54.137Z,0.00
2022-08-07T02:59:54.842Z,0.00
2022-08-07T03:00:52.308Z,0.00
2022-08-07T03:01:55.357Z,0.00
2022-08-07T03:02:54.940Z,0.00
2022-08-07T03:03:52.375Z,0.00
2022-08-07T03:04:52.444Z,0.00
2022-08-07T03:05:53.656Z,0.00
2022-08-07T03:06:52.565Z,0.00
2022-08-07T03:08:05.272Z,0.00
2022-08-07T03:08:52.645Z,0.00
2022-08-07T03:09:52.809Z,0.00
2022-08-07T03:10:52.636Z,0.00
2022-08-07T03:11:57.999Z,0.00
2022-08-07T03:12:52.656Z,0.00
2022-08-07T03:13:57.620Z,0.00
2022-08-07T03:14:52.918Z,0.00
2022-08-07T03:15:56.278Z,0.00
2022-08-07T03:16:52.744Z,0.00
2022-08-07T03:17:54.332Z,0.00
2022-08-07T03:18:52.807Z,0.00
2022-08-07T03:19:54.841Z,0.00
2022-08-07T03:20:52.923Z,0.00
2022-08-07T03:21:52.989Z,0.00
2022-08-07T03:22:52.978Z,0.00
2022-08-07T03:24:20.860Z,0.00
2022-08-07T03:24:53.039Z,0.00
2022-08-07T03:25:58.345Z,0.00
2022-08-07T03:26:59.157Z,0.00
2022-08-07T03:28:09.202Z,0.00
2022-08-07T03:28:53.154Z,0.00
2022-08-07T03:29:53.197Z,0.00
2022-08-07T03:30:53.243Z,0.00
2022-08-07T03:31:53.250Z,0.00
2022-08-07T03:32:59.378Z,0.00
2022-08-07T03:33:53.291Z,0.00
2022-08-07T03:35:16.738Z,0.00
2022-08-07T03:35:53.372Z,0.00
2022-08-07T03:36:53.734Z,0.00
2022-08-07T03:37:55.176Z,0.00
2022-08-07T03:38:53.403Z,0.00
2022-08-07T03:40:15.063Z,0.00
2022-08-07T03:40:57.453Z,0.00
2022-08-07T03:41:53.449Z,0.00
2022-08-07T03:42:53.434Z,0.00
2022-08-07T03:43:57.169Z,0.00
2022-08-07T03:44:57.820Z,5.62
2022-08-07T03:45:53.453Z,5.62
2022-08-07T03:47:11.057Z,5.62
2022-08-07T03:47:53.544Z,5.62
2022-08-07T03:49:02.963Z,5.62
2022-08-07T03:49:53.754Z,5.62
2022-08-07T03:50:57.662Z,5.62
2022-08-07T03:52:01.040Z,5.62
2022-08-07T03:52:53.752Z,11.25
2022-08-07T03:54:33.014Z,11.25
2022-08-07T03:54:54.861Z,11.25
2022-08-07T03:56:03.700Z,11.25
2022-08-07T03:57:03.287Z,11.25
2022-08-07T03:58:35.153Z,16.88
2022-08-07T03:59:08.365Z,16.88
2022-08-07T04:00:01.884Z,16.88
2022-08-07T04:00:55.928Z,16.88
2022-08-07T04:01:54.110Z,22.50
2022-08-07T04:02:56.773Z,22.50
2022-08-07T04:03:55.111Z,22.50
2022-08-07T04:04:54.107Z,28.12
2022-08-07T04:05:58.838Z,28.12
2022-08-07T04:06:54.190Z,28.12
2022-08-07T04:07:54.270Z,33.75
2022-08-07T04:08:54.290Z,33.75
2022-08-07T04:09:54.289Z,33.75
2022-08-07T04:11:28.877Z,39.38
2022-08-07T04:12:27.782Z,39.38
2022-08-07T04:12:54.400Z,39.38
2022-08-07T04:14:10.348Z,45.00
2022-08-07T04:14:54.441Z,45.00
2022-08-07T04:15:54.441Z,45.00
2022-08-07T04:16:58.199Z,50.62
2022-08-07T04:18:30.876Z,50.62
2022-08-07T04:18:59.716Z,56.25
2022-08-07T04:19:55.263Z,56.25
2022-08-07T04:20:55.160Z,56.25
2022-08-07T04:22:04.909Z,61.88
2022-08-07T04:23:01.612Z,61.88
2022-08-07T04:24:03.894Z,67.50
2022-08-07T04:24:54.692Z,67.50
2022-08-07T04:25:54.723Z,67.50
2022-08-07T04:26:54.802Z,73.12
2022-08-07T04:27:59.185Z,73.12
2022-08-07T04:28:54.863Z,78.75
2022-08-07T04:30:02.152Z,78.75
2022-08-07T04:30:56.902Z,78.75
2022-08-07T04:32:02.926Z,84.38
2022-08-07T04:32:57.857Z,84.38
2022-08-07T04:33:56.642Z,90.00
2022-08-07T04:34:54.975Z,90.00
2022-08-07T04:35:55.015Z,95.62
2022-08-07T04:36:55.048Z,95.62
2022-08-07T04:38:06.781Z,95.62
2022-08-07T04:38:55.098Z,101.25
2022-08-07T04:39:55.128Z,101.25
2022-08-07T04:40:56.874Z,106.88
2022-08-07T04:41:55.107Z,106.88
2022-08-07T04:42:55.150Z,112.50
2022-08-07T04:44:12.791Z,112.50
2022-08-07T04:45:02.921Z,118.12
2022-08-07T04:46:01.308Z,118.12
2022-08-07T04:47:04.800Z,123.75
2022-08-07T04:47:58.767Z,123.75
2022-08-07T04:48:55.474Z,123.75
2022-08-07T04:49:58.174Z,129.38
2022-08-07T04:50:55.148Z,129.38
2022-08-07T04:51:55.188Z,135.00
2022-08-07T04:52:55.168Z,135.00
2022-08-07T04:54:05.336Z,140.62
2022-08-07T04:54:55.230Z,140.62
2022-08-07T04:58:11.957Z,146.25
2022-08-07T04:58:14.164Z,146.25
2022-08-07T04:58:31.630Z,146.25
2022-08-07T04:59:18.179Z,151.88
2022-08-07T05:00:11.120Z,151.88
2022-08-07T05:00:55.377Z,157.50
2022-08-07T05:01:55.371Z,157.50
2022-08-07T05:02:55.381Z,163.12
2022-08-07T05:04:07.717Z,163.12
2022-08-07T05:04:55.452Z,168.75
2022-08-07T05:05:57.494Z,174.38
2022-08-07T05:06:55.483Z,180.00
2022-08-07T05:07:55.668Z,601.88
2022-08-07T05:09:01.242Z,1220.62
2022-08-07T05:09:55.593Z,1434.38
2022-08-07T05:10:58.591Z,1271.25
2022-08-07T05:11:57.244Z,911.25
2022-08-07T05:12:59.828Z,691.88
2022-08-07T05:14:53.681Z,556.88
2022-08-07T05:15:03.286Z,433.12
2022-08-07T05:15:55.706Z,337.50
2022-08-07T05:16:55.714Z,247.50
2022-08-07T05:17:55.891Z,225.00
2022-08-07T05:18:55.791Z,360.00
2022-08-07T05:19:55.816Z,961.88
2022-08-07T05:20:55.787Z,1535.62
2022-08-07T05:22:00.093Z,1760.62
2022-08-07T05:22:55.866Z,1794.38
2022-08-07T05:23:55.917Z,1800.00
2022-08-07T05:24:55.990Z,1805.62
2022-08-07T05:26:13.492Z,1856.25
2022-08-07T05:26:56.060Z,1906.88
2022-08-07T05:28:03.411Z,1856.25
2022-08-07T05:28:56.110Z,1777.50
2022-08-07T05:29:56.121Z,1980.00
2022-08-07T05:30:56.765Z,2053.12
2022-08-07T05:31:56.109Z,2058.75
2022-08-07T05:32:56.141Z,2008.12
2022-08-07T05:34:04.900Z,1957.50
2022-08-07T05:34:56.183Z,1957.50
2022-08-07T05:35:56.223Z,1968.75
2022-08-07T05:36:56.253Z,2025.00
2022-08-07T05:38:08.847Z,2064.38
2022-08-07T05:39:00.561Z,2176.88
2022-08-07T05:40:18.442Z,2250.00
2022-08-07T05:40:56.446Z,2261.25
2022-08-07T05:42:01.803Z,2272.50
2022-08-07T05:42:56.615Z,2295.00
2022-08-07T05:44:12.079Z,2345.62
2022-08-07T05:45:04.479Z,2356.88
2022-08-07T05:45:56.626Z,2362.50
2022-08-07T05:46:56.668Z,2351.25
2022-08-07T05:48:01.218Z,2373.75
2022-08-07T05:48:59.095Z,2401.88
2022-08-07T05:49:56.778Z,2441.25
2022-08-07T05:50:56.760Z,2413.12
2022-08-07T05:51:56.809Z,2401.88
2022-08-07T05:52:56.849Z,2413.12
2022-08-07T05:54:13.828Z,2435.62
2022-08-07T05:54:58.777Z,2418.75
2022-08-07T05:56:02.198Z,2356.88
2022-08-07T05:56:56.991Z,2295.00
2022-08-07T05:57:57.053Z,2283.75
2022-08-07T05:58:57.024Z,2334.38
2022-08-07T05:59:58.217Z,2385.00
2022-08-07T06:00:57.033Z,2446.88
2022-08-07T06:01:57.419Z,2503.12
2022-08-07T06:02:57.175Z,2525.62
2022-08-07T06:03:58.848Z,2497.50
2022-08-07T06:04:57.237Z,2463.75
2022-08-07T06:05:57.316Z,2446.88
2022-08-07T06:07:03.793Z,2497.50
2022-08-07T06:08:14.726Z,2581.88
2022-08-07T06:08:57.467Z,2677.50
2022-08-07T06:10:05.504Z,2716.88
2022-08-07T06:10:57.539Z,2733.75
2022-08-07T06:11:57.540Z,2784.38
2022-08-07T06:12:57.600Z,2801.25
2022-08-07T06:14:13.255Z,2790.00
2022-08-07T06:15:02.959Z,2818.12
2022-08-07T06:15:57.702Z,2868.75
2022-08-07T06:16:57.722Z,2874.38
2022-08-07T06:17:57.762Z,2857.50
2022-08-07T06:18:57.794Z,2880.00
2022-08-07T06:20:04.306Z,2874.38
2022-08-07T06:22:11.676Z,2846.25
2022-08-07T06:22:14.889Z,2795.62
2022-08-07T06:23:02.568Z,2846.25
2022-08-07T06:24:45.946Z,2941.88
2022-08-07T06:25:01.094Z,3003.75
2022-08-07T06:25:58.119Z,2902.50
2022-08-07T06:26:58.166Z,2823.75
2022-08-07T06:28:01.483Z,2761.88
2022-08-07T06:28:59.019Z,2621.25
2022-08-07T06:29:58.228Z,2671.88
2022-08-07T06:30:58.626Z,2806.88
2022-08-07T06:31:58.299Z,2857.50
2022-08-07T06:32:58.349Z,2958.75
2022-08-07T06:33:58.411Z,3037.50
2022-08-07T06:34:58.448Z,3048.75
2022-08-07T06:36:12.795Z,3060.00
2022-08-07T06:36:58.482Z,2986.88
2022-08-07T06:37:58.523Z,2986.88
2022-08-07T06:40:13.427Z,2986.88
2022-08-07T06:40:17.562Z,2958.75
2022-08-07T06:40:58.769Z,2986.88
2022-08-07T06:42:01.753Z,3065.62
2022-08-07T06:42:58.821Z,3099.38
2022-08-07T06:44:01.348Z,3043.12
2022-08-07T06:44:58.838Z,3026.25
2022-08-07T06:46:01.013Z,3043.12
2022-08-07T06:47:10.230Z,3076.88
2022-08-07T06:47:59.609Z,3150.00
2022-08-07T06:48:58.950Z,3223.12
2022-08-07T06:49:59.087Z,3256.88
2022-08-07T06:50:59.049Z,3223.12
2022-08-07T06:51:59.598Z,3206.25
2022-08-07T06:52:59.120Z,3206.25
2022-08-07T06:55:27.499Z,3256.88
2022-08-07T06:55:32.011Z,3324.38
2022-08-07T06:56:01.889Z,3341.25
2022-08-07T06:56:59.289Z,3262.50
2022-08-07T06:58:00.245Z,3178.12
2022-08-07T07:00:11.857Z,3228.75
2022-08-07T07:00:13.716Z,3166.88
2022-08-07T07:00:59.344Z,3268.12
2022-08-07T07:01:59.597Z,3256.88
2022-08-07T07:03:08.777Z,3166.88
2022-08-07T07:04:08.254Z,3060.00
2022-08-07T07:04:59.523Z,2975.62
2022-08-07T07:06:02.462Z,2941.88
2022-08-07T07:07:01.216Z,3037.50
2022-08-07T07:08:06.605Z,3150.00
2022-08-07T07:08:59.662Z,3206.25
2022-08-07T07:09:59.705Z,3256.88
2022-08-07T07:11:00.929Z,3262.50
2022-08-07T07:12:08.991Z,3290.62
2022-08-07T07:12:59.671Z,3313.12
2022-08-07T07:14:02.237Z,3279.38
2022-08-07T07:14:59.672Z,3324.38
2022-08-07T07:15:59.672Z,3324.38
2022-08-07T07:16:59.723Z,3178.12
2022-08-07T07:17:59.763Z,3166.88
2022-08-07T07:18:59.817Z,3234.38
2022-08-07T07:19:59.849Z,3071.25
2022-08-07T07:20:59.885Z,2801.25
2022-08-07T07:22:11.961Z,2638.12
2022-08-07T07:24:05.644Z,2604.38
2022-08-07T07:24:08.735Z,2615.62
2022-08-07T07:25:02.901Z,2638.12
2022-08-07T07:26:33.482Z,2587.50
2022-08-07T07:27:00.126Z,2553.75
2022-08-07T07:28:03.238Z,2593.12
2022-08-07T07:29:56.761Z,2694.38
2022-08-07T07:30:08.904Z,2806.88
2022-08-07T07:31:00.271Z,2902.50
2022-08-07T07:32:00.311Z,3003.75
2022-08-07T07:33:00.343Z,3093.75
2022-08-07T07:34:00.423Z,3138.75
2022-08-07T07:35:04.523Z,3217.50
2022-08-07T07:36:05.426Z,3228.75
2022-08-07T07:37:14.817Z,3211.88
2022-08-07T07:38:02.407Z,3228.75
2022-08-07T07:39:00.695Z,3296.25
2022-08-07T07:40:00.682Z,3346.88
2022-08-07T07:41:02.406Z,3386.25
2022-08-07T07:42:12.892Z,3358.12
2022-08-07T07:43:11.606Z,3262.50
2022-08-07T07:44:17.052Z,3155.62
2022-08-07T07:45:00.775Z,3172.50
2022-08-07T07:46:37.328Z,3256.88
2022-08-07T07:47:14.050Z,3256.88
2022-08-07T07:48:00.861Z,3093.75
2022-08-07T07:50:15.944Z,2818.12
2022-08-07T07:50:35.668Z,2615.62
2022-08-07T07:51:02.131Z,2598.75
2022-08-07T07:52:01.064Z,2705.62
2022-08-07T07:53:01.129Z,2801.25
2022-08-07T07:54:01.141Z,2896.88
2022-08-07T07:55:01.224Z,3015.00
2022-08-07T07:56:01.385Z,3116.25
2022-08-07T07:57:01.525Z,3183.75
2022-08-07T07:58:01.263Z,3200.62
2022-08-07T07:59:01.611Z,3330.00
2022-08-07T08:00:02.132Z,3408.75
2022-08-07T08:01:01.348Z,3363.75
2022-08-07T08:02:05.261Z,3251.25
2022-08-07T08:03:05.217Z,3183.75
2022-08-07T08:04:10.358Z,3234.38
2022-08-07T08:05:01.510Z,3121.88
2022-08-07T08:06:01.549Z,2975.62
2022-08-07T08:07:02.863Z,2941.88
2022-08-07T08:08:01.961Z,2981.25
2022-08-07T08:09:01.662Z,3093.75
2022-08-07T08:10:05.438Z,3121.88
2022-08-07T08:11:01.732Z,3026.25
2022-08-07T08:12:04.965Z,3048.75
2022-08-07T08:13:03.035Z,3099.38
2022-08-07T08:14:01.854Z,3054.38
2022-08-07T08:15:01.911Z,2992.50
2022-08-07T08:16:01.962Z,2896.88
2022-08-07T08:17:55.334Z,3026.25
2022-08-07T08:18:17.916Z,3082.50
2022-08-07T08:19:17.440Z,3009.38
2022-08-07T08:20:19.626Z,2846.25
2022-08-07T08:21:02.179Z,2857.50
2022-08-07T08:22:03.263Z,2868.75
2022-08-07T08:23:02.199Z,3200.62
2022-08-07T08:24:02.294Z,3223.12
2022-08-07T08:25:18.127Z,3121.88
2022-08-07T08:26:06.696Z,2941.88
2022-08-07T08:27:02.328Z,2919.38
2022-08-07T08:28:03.974Z,2851.88
2022-08-07T08:29:02.389Z,2700.00
2022-08-07T08:30:03.846Z,2542.50
2022-08-07T08:31:02.450Z,2581.88
2022-08-07T08:32:17.764Z,2857.50
2022-08-07T08:33:03.006Z,3127.50
2022-08-07T08:34:02.572Z,2953.12
2022-08-07T08:35:02.583Z,2677.50
2022-08-07T08:36:02.583Z,2767.50
2022-08-07T08:37:02.637Z,2908.12
2022-08-07T08:38:04.668Z,2953.12
2022-08-07T08:39:02.939Z,2947.50
2022-08-07T08:40:02.779Z,2992.50
2022-08-07T08:41:02.981Z,2986.88
2022-08-07T08:42:02.817Z,2851.88
2022-08-07T08:43:02.945Z,2660.62
2022-08-07T08:44:02.917Z,2475.00
2022-08-07T08:45:04.432Z,2508.75
2022-08-07T08:46:02.970Z,2626.88
2022-08-07T08:47:03.018Z,2700.00
2022-08-07T08:48:03.112Z,2761.88
2022-08-07T08:49:03.070Z,2806.88
2022-08-07T08:50:05.704Z,2790.00
2022-08-07T08:51:03.385Z,2874.38
2022-08-07T08:52:13.677Z,2801.25
2022-08-07T08:53:03.272Z,2643.75
2022-08-07T08:54:03.263Z,2576.25
2022-08-07T08:55:07.619Z,2615.62
2022-08-07T08:56:03.362Z,2666.25
2022-08-07T08:57:03.365Z,2570.62
2022-08-07T08:58:03.425Z,2536.88
2022-08-07T08:59:06.658Z,2688.75
2022-08-07T09:00:03.476Z,2722.50
2022-08-07T09:01:14.555Z,2615.62
2022-08-07T09:02:03.646Z,2626.88
2022-08-07T09:03:07.461Z,2677.50
2022-08-07T09:04:03.620Z,2610.00
2022-08-07T09:05:03.680Z,2480.62
2022-08-07T09:06:03.757Z,2469.38
2022-08-07T09:07:04.063Z,2373.75
2022-08-07T09:08:03.800Z,2233.12
2022-08-07T09:09:13.406Z,2261.25
2022-08-07T09:10:03.843Z,2334.38
2022-08-07T09:11:03.891Z,2430.00
2022-08-07T09:12:30.533Z,2401.88
2022-08-07T09:13:03.997Z,2379.38
2022-08-07T09:14:04.933Z,2390.62
2022-08-07T09:16:20.657Z,2396.25
2022-08-07T09:16:25.930Z,2497.50
2022-08-07T09:17:04.144Z,2486.25
2022-08-07T09:18:08.774Z,2216.25
2022-08-07T09:19:07.078Z,2210.62
2022-08-07T09:20:09.433Z,2323.12
2022-08-07T09:21:04.162Z,2295.00
2022-08-07T09:22:22.636Z,2131.88
2022-08-07T09:24:33.192Z,2193.75
2022-08-07T09:24:34.199Z,2328.75
2022-08-07T09:25:07.119Z,2362.50
2022-08-07T09:26:04.364Z,2396.25
2022-08-07T09:27:09.153Z,2401.88
2022-08-07T09:28:04.351Z,2272.50
2022-08-07T09:30:05.169Z,2210.62
2022-08-07T09:30:08.448Z,2210.62
2022-08-07T09:31:04.413Z,2193.75
2022-08-07T09:32:04.377Z,2306.25
2022-08-07T09:33:05.229Z,2266.88
2022-08-07T09:34:05.132Z,1991.25
2022-08-07T09:36:04.125Z,2002.50
2022-08-07T09:36:07.611Z,2075.62
2022-08-07T09:37:04.714Z,2176.88
2022-08-07T09:38:05.411Z,2295.00
2022-08-07T09:39:11.465Z,2278.12
2022-08-07T09:40:04.659Z,2154.38
2022-08-07T09:41:04.703Z,2148.75
2022-08-07T09:42:06.572Z,2075.62
2022-08-07T09:43:04.681Z,2008.12
2022-08-07T09:44:06.725Z,2013.75
2022-08-07T09:47:25.997Z,2036.25
2022-08-07T09:47:49.689Z,1856.25
2022-08-07T09:47:50.517Z,1918.12
2022-08-07T09:48:11.722Z,1906.88
2022-08-07T09:50:02.500Z,2013.75
2022-08-07T09:50:18.424Z,1968.75
2022-08-07T09:51:05.371Z,1968.75
2022-08-07T09:52:16.673Z,1951.88
2022-08-07T09:53:05.077Z,1929.38
2022-08-07T09:54:05.113Z,1974.38
2022-08-07T09:55:05.056Z,1974.38
2022-08-07T09:56:05.517Z,1923.75
2022-08-07T09:57:05.148Z,1918.12
2022-08-07T09:58:05.157Z,1918.12
2022-08-07T09:59:07.850Z,1794.38
2022-08-07T10:00:05.145Z,1822.50
2022-08-07T10:01:08.446Z,1856.25
2022-08-07T10:02:05.301Z,1856.25
2022-08-07T10:03:08.411Z,1839.38
2022-08-07T10:04:14.869Z,1822.50
2022-08-07T10:05:12.648Z,1755.00
2022-08-07T10:06:10.850Z,1749.38
2022-08-07T10:07:05.430Z,1636.88
2022-08-07T10:08:05.462Z,1558.12
2022-08-07T10:09:05.646Z,1530.00
2022-08-07T10:10:05.585Z,1518.75
2022-08-07T10:11:59.542Z,1507.50
2022-08-07T10:12:15.464Z,1518.75
2022-08-07T10:13:05.585Z,1451.25
2022-08-07T10:14:05.694Z,1580.62
2022-08-07T10:15:06.358Z,1653.75
2022-08-07T10:16:05.706Z,1597.50
2022-08-07T10:17:14.432Z,1552.50
2022-08-07T10:18:05.816Z,1530.00
2022-08-07T10:19:11.363Z,1440.00
2022-08-07T10:20:05.902Z,1350.00
2022-08-07T10:21:20.064Z,1423.12
2022-08-07T10:22:16.045Z,1411.88
2022-08-07T10:23:07.645Z,1395.00
2022-08-07T10:24:08.573Z,1445.62
2022-08-07T10:25:06.863Z,1417.50
2022-08-07T10:26:06.080Z,1434.38
2022-08-07T10:27:06.704Z,1372.50
2022-08-07T10:28:06.955Z,1355.62
2022-08-07T10:29:06.053Z,1321.88
2022-08-07T10:30:06.417Z,1293.75
2022-08-07T10:31:11.010Z,1293.75
2022-08-07T10:32:06.222Z,1260.00
2022-08-07T10:33:06.215Z,1215.00
2022-08-07T10:34:15.738Z,1231.88
2022-08-07T10:35:09.122Z,1226.25
2022-08-07T10:36:12.549Z,1170.00
2022-08-07T10:37:06.321Z,1147.50
2022-08-07T10:38:21.256Z,1153.12
2022-08-07T10:39:06.555Z,1147.50
2022-08-07T10:40:09.150Z,1164.38
2022-08-07T10:41:06.523Z,1125.00
2022-08-07T10:42:09.706Z,1074.38
2022-08-07T10:43:06.829Z,1091.25
2022-08-07T10:44:07.779Z,1080.00
2022-08-07T10:45:07.382Z,1029.38
2022-08-07T10:46:06.593Z,1018.12
2022-08-07T10:47:11.588Z,984.38
2022-08-07T10:48:07.339Z,939.38
2022-08-07T10:49:06.634Z,961.88
2022-08-07T10:50:06.635Z,978.75
2022-08-07T10:51:06.654Z,950.62
2022-08-07T10:52:13.227Z,939.38
2022-08-07T10:53:08.980Z,945.00
2022-08-07T10:54:06.660Z,939.38
2022-08-07T10:55:20.905Z,922.50
2022-08-07T10:56:06.708Z,905.62
2022-08-07T10:57:06.758Z,922.50
2022-08-07T10:58:07.639Z,877.50
2022-08-07T10:59:06.847Z,838.12
2022-08-07T11:00:06.911Z,826.88
2022-08-07T11:01:11.657Z,821.25
2022-08-07T11:02:12.482Z,798.75
2022-08-07T11:03:11.030Z,793.12
2022-08-07T11:04:16.981Z,776.25
2022-08-07T11:05:10.552Z,781.88
2022-08-07T11:06:07.064Z,770.62
2022-08-07T11:07:14.938Z,759.38
2022-08-07T11:08:07.412Z,759.38
2022-08-07T11:09:11.457Z,742.50
2022-08-07T11:10:10.918Z,736.88
2022-08-07T11:11:07.357Z,680.62
2022-08-07T11:12:07.250Z,573.75
2022-08-07T11:13:07.216Z,556.88
2022-08-07T11:14:57.474Z,551.25
2022-08-07T11:15:09.634Z,551.25
2022-08-07T11:16:08.169Z,556.88
2022-08-07T11:17:09.124Z,551.25
2022-08-07T11:18:07.350Z,551.25
2022-08-07T11:19:08.069Z,545.62
2022-08-07T11:20:09.770Z,545.62
2022-08-07T11:21:07.858Z,545.62
2022-08-07T11:22:18.952Z,540.00
2022-08-07T11:23:09.287Z,534.38
2022-08-07T11:24:08.353Z,534.38
2022-08-07T11:25:07.636Z,528.75
2022-08-07T11:26:07.643Z,534.38
2022-08-07T11:27:07.707Z,540.00
2022-08-07T11:28:08.130Z,551.25
2022-08-07T11:29:13.163Z,556.88
2022-08-07T11:30:10.122Z,556.88
2022-08-07T11:31:08.527Z,556.88
2022-08-07T11:32:07.865Z,556.88
2022-08-07T11:33:14.275Z,556.88
2022-08-07T11:34:10.860Z,551.25
2022-08-07T11:35:09.329Z,562.50
2022-08-07T11:36:10.109Z,551.25
2022-08-07T11:37:11.836Z,556.88
2022-08-07T11:38:12.495Z,573.75
2022-08-07T11:39:08.111Z,585.00
2022-08-07T11:40:08.119Z,585.00
2022-08-07T11:41:08.078Z,590.62
2022-08-07T11:42:08.127Z,601.88
2022-08-07T11:43:08.163Z,590.62
2022-08-07T11:44:12.283Z,590.62
2022-08-07T11:45:08.219Z,590.62
2022-08-07T11:46:08.221Z,613.12
2022-08-07T11:47:08.250Z,613.12
2022-08-07T11:48:18.008Z,613.12
2022-08-07T11:49:51.299Z,601.88
2022-08-07T11:50:31.587Z,596.25
2022-08-07T11:51:09.715Z,596.25
2022-08-07T11:52:08.463Z,590.62
2022-08-07T11:53:08.513Z,585.00
2022-08-07T11:54:10.423Z,568.12
2022-08-07T11:55:18.693Z,562.50
2022-08-07T11:56:27.206Z,556.88
2022-08-07T11:57:12.825Z,551.25
2022-08-07T11:58:12.574Z,545.62
2022-08-07T12:00:07.974Z,545.62
2022-08-07T12:00:19.243Z,540.00
2022-08-07T12:01:09.016Z,545.62
2022-08-07T12:02:17.602Z,545.62
2022-08-07T12:03:08.976Z,551.25
2022-08-07T12:04:09.009Z,562.50
2022-08-07T12:05:28.840Z,562.50
2022-08-07T12:06:37.034Z,573.75
2022-08-07T12:07:20.298Z,596.25
2022-08-07T12:08:25.462Z,613.12
2022-08-07T12:09:16.064Z,630.00
2022-08-07T12:10:09.179Z,646.88
2022-08-07T12:11:20.184Z,663.75
2022-08-07T12:12:11.424Z,675.00
2022-08-07T12:13:11.707Z,686.25
2022-08-07T12:14:09.703Z,697.50
2022-08-07T12:15:17.207Z,703.12
2022-08-07T12:16:09.441Z,691.88
2022-08-07T12:17:09.286Z,669.38
2022-08-07T12:18:11.213Z,658.12
2022-08-07T12:19:09.316Z,624.38
2022-08-07T12:20:20.062Z,607.50
2022-08-07T12:21:09.386Z,596.25
2022-08-07T12:22:39.327Z,585.00
2022-08-07T12:23:09.471Z,573.75
2022-08-07T12:24:38.387Z,568.12
2022-08-07T12:25:09.528Z,568.12
2022-08-07T12:26:28.561Z,562.50
2022-08-07T12:27:16.014Z,556.88
2022-08-07T12:28:10.861Z,545.62
2022-08-07T12:29:09.616Z,540.00
2022-08-07T12:30:09.660Z,523.12
2022-08-07T12:31:09.723Z,517.50
2022-08-07T12:32:13.115Z,517.50
2022-08-07T12:33:23.329Z,523.12
2022-08-07T12:34:11.256Z,517.50
2022-08-07T12:35:09.785Z,517.50